Time;durP1;ratioP1;P1;durP2;ratioP2;P2;SDS_P1;SDS_P2;PMS_P1;PMS_P2;Temp;Humidity;BMP_temperature;BMP_pressure;BME280_temperature;BME280_humidity;BME280_pressure;Samples;Min_cycle;Max_cycle;Signal;HPM_P1;HPM_P2
2022/06/12 00:01:18;;;;;;;3.47;2.23;;;26.30;67.70;;;;;;4975470;28;20899;-84
2022/06/12 00:03:45;;;;;;;4.00;2.53;;;26.30;67.60;;;;;;4975113;28;20835;-84
2022/06/12 00:06:14;;;;;;;2.00;1.80;;;26.30;67.60;;;;;;4975319;28;20451;-85
2022/06/12 00:08:42;;;;;;;2.43;2.00;;;26.30;67.60;;;;;;4975336;28;20535;-85
2022/06/12 00:11:11;;;;;;;2.00;1.70;;;26.30;67.60;;;;;;4975120;28;20437;-83
2022/06/12 00:13:43;;;;;;;2.13;1.70;;;26.30;67.60;;;;;;4975280;28;20446;-84
2022/06/12 00:16:11;;;;;;;1.90;1.70;;;26.30;67.60;;;;;;4975266;28;20460;-83
2022/06/12 00:18:39;;;;;;;2.10;1.83;;;26.30;67.60;;;;;;4974699;28;20442;-83
2022/06/12 00:21:12;;;;;;;1.90;1.80;;;26.30;67.60;;;;;;4974736;28;20469;-84
2022/06/12 00:23:48;;;;;;;3.27;2.23;;;26.30;68.40;;;;;;4974967;28;20560;-83
2022/06/12 00:26:21;;;;;;;2.30;1.77;;;26.30;67.60;;;;;;4974403;28;20468;-85
2022/06/12 00:28:48;;;;;;;2.17;1.97;;;26.30;67.70;;;;;;4974787;28;20462;-84
2022/06/12 00:31:15;;;;;;;1.83;1.60;;;26.30;67.70;;;;;;4974733;28;20899;-84
2022/06/12 00:33:42;;;;;;;2.13;1.93;;;26.30;67.70;;;;;;4974974;28;20441;-86
2022/06/12 00:36:09;;;;;;;1.80;1.70;;;26.30;67.70;;;;;;4975011;28;20438;-84
2022/06/12 00:38:39;;;;;;;2.90;2.23;;;26.30;67.70;;;;;;4975153;28;20448;-83
2022/06/12 00:41:08;;;;;;;2.37;1.80;;;26.30;67.70;;;;;;4974755;28;20461;-86
2022/06/12 00:43:35;;;;;;;1.70;1.60;;;26.30;67.70;;;;;;4974751;28;20492;-84
2022/06/12 00:46:03;;;;;;;2.53;1.80;;;26.20;67.60;;;;;;4974640;28;20532;-85
2022/06/12 00:48:32;;;;;;;2.17;2.00;;;26.30;67.70;;;;;;4974526;28;20454;-84
2022/06/12 00:51:04;;;;;;;2.17;1.97;;;26.30;67.70;;;;;;4974578;28;20821;-85
2022/06/12 00:53:39;;;;;;;2.60;2.00;;;26.30;67.80;;;;;;4974752;28;20874;-83
2022/06/12 00:56:12;;;;;;;2.47;2.00;;;26.30;67.70;;;;;;4975134;28;20498;-84
2022/06/12 00:58:44;;;;;;;2.30;1.80;;;26.30;67.70;;;;;;4974527;28;20441;-84
2022/06/12 01:01:18;;;;;;;2.27;1.87;;;26.30;67.70;;;;;;4974555;28;20512;-84
2022/06/12 01:06:36;;;;;;;1.90;1.80;;;26.20;67.60;;;;;;4974521;28;20433;-85
2022/06/12 01:09:07;;;;;;;2.23;1.73;;;26.20;67.70;;;;;;4974448;28;20492;-84
2022/06/12 01:11:37;;;;;;;1.93;1.40;;;26.20;67.70;;;;;;4974649;28;20437;-84
2022/06/12 01:14:07;;;;;;;2.50;2.30;;;26.20;67.80;;;;;;4974437;28;20449;-84
2022/06/12 01:16:36;;;;;;;2.80;1.80;;;26.20;67.70;;;;;;4974098;28;20450;-85
2022/06/12 01:19:05;;;;;;;1.80;1.70;;;26.20;67.70;;;;;;4974526;28;21009;-84
2022/06/12 01:22:11;;;;;;;1.87;1.77;;;26.20;67.70;;;;;;4974043;28;20546;-86
2022/06/12 01:24:47;;;;;;;1.73;1.57;;;26.30;67.70;;;;;;4974445;28;20525;-84
2022/06/12 01:27:45;;;;;;;1.93;1.50;;;26.20;67.70;;;;;;4974619;28;20441;-84
2022/06/12 01:30:18;;;;;;;1.50;1.40;;;26.20;67.70;;;;;;4964171;28;20793;-86
2022/06/12 01:32:51;;;;;;;1.93;1.70;;;26.20;67.60;;;;;;4977967;28;20552;-84
2022/06/12 01:35:22;;;;;;;1.73;1.53;;;26.20;67.70;;;;;;4978086;28;20447;-84
2022/06/12 01:37:55;;;;;;;2.23;1.97;;;26.20;67.60;;;;;;4977945;28;20441;-84
2022/06/12 01:40:37;;;;;;;1.87;1.70;;;26.20;67.60;;;;;;4977985;28;20536;-84
2022/06/12 01:43:15;;;;;;;1.53;1.33;;;26.20;67.50;;;;;;4977674;28;20563;-83
2022/06/12 01:45:51;;;;;;;1.53;1.23;;;26.20;67.40;;;;;;4978185;28;20448;-84
2022/06/12 01:48:27;;;;;;;1.63;1.53;;;26.20;67.40;;;;;;4977797;28;20445;-84
2022/06/12 01:51:01;;;;;;;2.23;1.80;;;26.20;67.30;;;;;;4977819;28;20460;-86
2022/06/12 01:53:38;;;;;;;1.30;1.20;;;26.20;67.40;;;;;;4977559;28;20451;-84
2022/06/12 01:56:16;;;;;;;1.43;1.33;;;26.20;67.40;;;;;;4977747;28;20475;-84
2022/06/12 01:58:47;;;;;;;1.40;1.30;;;26.20;67.30;;;;;;4977665;28;20433;-84
2022/06/12 02:01:22;;;;;;;1.63;1.37;;;26.20;67.30;;;;;;4977522;28;20446;-84
2022/06/12 02:03:55;;;;;;;1.47;1.37;;;26.30;68.20;;;;;;4977609;28;20492;-82
2022/06/12 02:06:26;;;;;;;1.50;1.30;;;26.20;67.30;;;;;;4977611;28;20920;-83
2022/06/12 02:08:58;;;;;;;1.37;1.27;;;26.20;67.20;;;;;;4977361;28;20430;-85
2022/06/12 02:14:18;;;;;;;2.20;1.30;;;26.20;67.10;;;;;;4977452;28;20433;-82
2022/06/12 02:16:49;;;;;;;1.40;1.20;;;26.20;67.20;;;;;;4977059;28;20499;-84
2022/06/12 02:19:19;;;;;;;1.70;1.50;;;26.20;68.00;;;;;;4977392;28;20445;-83
2022/06/12 02:21:52;;;;;;;1.90;1.67;;;26.20;67.20;;;;;;4977104;28;20469;-84
2022/06/12 02:24:23;;;;;;;1.70;1.60;;;26.30;67.20;;;;;;4977169;28;20536;-85
2022/06/12 02:26:58;;;;;;;2.47;1.60;;;26.20;67.20;;;;;;4977237;28;20437;-84
2022/06/12 02:29:29;;;;;;;1.90;1.80;;;26.20;67.10;;;;;;4977164;28;20544;-84
2022/06/12 02:32:03;;;;;;;1.93;1.60;;;26.20;67.10;;;;;;4976908;28;20454;-83
2022/06/12 02:34:34;;;;;;;2.83;1.50;;;26.20;67.00;;;;;;4977180;28;20445;-85
2022/06/12 02:37:06;;;;;;;1.80;1.70;;;26.20;67.00;;;;;;4976641;28;20884;-86
2022/06/12 02:39:37;;;;;;;1.73;1.63;;;26.30;67.10;;;;;;4970904;28;20450;-86
2022/06/12 02:42:09;;;;;;;1.50;1.40;;;26.20;67.00;;;;;;4976283;28;20503;-84
2022/06/12 02:44:44;;;;;;;1.60;1.50;;;26.20;67.10;;;;;;4976950;28;20481;-84
2022/06/12 02:47:16;;;;;;;1.60;1.50;;;26.20;67.10;;;;;;4976713;28;20449;-84
2022/06/12 02:49:46;;;;;;;1.87;1.70;;;26.20;67.10;;;;;;4976772;28;20524;-84
2022/06/12 02:52:20;;;;;;;1.83;1.60;;;26.20;67.20;;;;;;4976587;28;20469;-84
2022/06/12 02:54:53;;;;;;;1.80;1.70;;;26.20;67.30;;;;;;4976899;28;20445;-85
2022/06/12 02:57:33;;;;;;;1.40;1.30;;;26.20;67.20;;;;;;4976460;28;20481;-84
2022/06/12 03:00:10;;;;;;;1.73;1.63;;;26.20;67.30;;;;;;4976663;28;20532;-85
2022/06/12 03:02:46;;;;;;;1.30;1.20;;;26.20;67.40;;;;;;4976505;28;20433;-84
2022/06/12 03:05:20;;;;;;;1.40;1.30;;;26.20;68.20;;;;;;4976423;28;20552;-83
2022/06/12 03:07:48;;;;;;;1.60;1.30;;;26.20;67.30;;;;;;4976006;28;20440;-84
2022/06/12 03:10:20;;;;;;;1.77;1.67;;;26.20;67.40;;;;;;4976399;28;20878;-83
2022/06/12 03:12:50;;;;;;;1.63;1.50;;;26.20;67.80;;;;;;4976376;28;20528;-84
2022/06/12 03:15:35;;;;;;;1.47;1.37;;;26.20;67.50;;;;;;4976261;28;20441;-83
2022/06/12 03:18:07;;;;;;;1.60;1.50;;;26.30;67.70;;;;;;4976309;28;20442;-84
2022/06/12 03:20:41;;;;;;;1.37;1.27;;;26.20;67.70;;;;;;4975784;28;20492;-83
2022/06/12 03:23:21;;;;;;;1.57;1.47;;;26.20;67.60;;;;;;4976266;28;20437;-83
2022/06/12 03:25:52;;;;;;;1.70;1.40;;;26.20;67.60;;;;;;4976106;28;20452;-85
2022/06/12 03:28:27;;;;;;;1.40;1.30;;;26.20;67.70;;;;;;4976197;28;20438;-84
2022/06/12 03:31:04;;;;;;;1.27;1.13;;;26.20;67.80;;;;;;4976037;28;20433;-84
2022/06/12 03:33:38;;;;;;;3.10;1.70;;;26.20;67.80;;;;;;4976088;28;20459;-85
2022/06/12 03:36:12;;;;;;;1.67;1.57;;;26.20;67.80;;;;;;4975936;28;20451;-84
2022/06/12 03:38:46;;;;;;;1.60;1.50;;;26.20;67.90;;;;;;4975715;28;20452;-83
2022/06/12 03:41:20;;;;;;;1.80;1.60;;;26.20;67.90;;;;;;4975812;28;20540;-83
2022/06/12 03:43:55;;;;;;;1.40;1.30;;;26.20;67.90;;;;;;4975733;28;20491;-85
2022/06/12 03:46:29;;;;;;;1.80;1.50;;;26.20;68.00;;;;;;4975654;28;20444;-83
2022/06/12 03:49:03;;;;;;;1.40;1.30;;;26.20;68.10;;;;;;4975718;28;20452;-83
2022/06/12 03:51:36;;;;;;;1.67;1.30;;;26.20;68.10;;;;;;4975667;28;20777;-84
2022/06/12 03:54:10;;;;;;;1.60;1.50;;;26.10;68.00;;;;;;4975031;28;20534;-86
2022/06/12 03:59:34;;;;;;;1.80;1.70;;;26.20;69.00;;;;;;4975452;28;20517;-84
2022/06/12 04:02:04;;;;;;;1.50;1.40;;;26.10;68.10;;;;;;4975490;28;20441;-84
2022/06/12 04:04:35;;;;;;;2.10;1.50;;;26.10;68.10;;;;;;4975339;28;20495;-85
2022/06/12 04:07:07;;;;;;;2.03;1.73;;;26.20;68.20;;;;;;4975241;28;20552;-85
2022/06/12 04:09:37;;;;;;;1.70;1.60;;;26.10;68.10;;;;;;4975421;28;20449;-85
2022/06/12 04:12:11;;;;;;;1.50;1.40;;;26.10;68.10;;;;;;4975326;28;20850;-85
2022/06/12 04:14:42;;;;;;;1.57;1.47;;;26.10;68.00;;;;;;4975273;28;20445;-84
2022/06/12 04:17:09;;;;;;;1.57;1.47;;;26.10;68.10;;;;;;4974975;28;20445;-84
2022/06/12 04:22:23;;;;;;;1.50;1.40;;;26.10;68.10;;;;;;4974805;28;20932;-83
2022/06/12 04:24:53;;;;;;;1.40;1.10;;;26.10;68.10;;;;;;4975057;28;20998;-83
2022/06/12 04:27:25;;;;;;;1.40;1.30;;;26.10;68.10;;;;;;4975237;28;20441;-83
2022/06/12 04:29:56;;;;;;;1.43;1.33;;;26.20;68.30;;;;;;4974975;28;20449;-85
2022/06/12 04:32:23;;;;;;;2.10;1.90;;;26.10;68.20;;;;;;4975035;28;20963;-85
2022/06/12 04:34:53;;;;;;;1.50;1.40;;;26.10;68.10;;;;;;4974829;28;20536;-85
2022/06/12 04:37:22;;;;;;;1.83;1.60;;;26.10;68.20;;;;;;4975027;28;20828;-83
2022/06/12 04:39:51;;;;;;;1.80;1.70;;;26.20;68.10;;;;;;4974892;28;20442;-85
2022/06/12 04:42:25;;;;;;;1.67;1.57;;;26.10;68.10;;;;;;4974852;28;20532;-83
2022/06/12 04:44:52;;;;;;;1.80;1.70;;;26.10;68.10;;;;;;4974865;28;20500;-83
2022/06/12 04:47:22;;;;;;;1.30;1.20;;;26.10;68.10;;;;;;4974919;28;20445;-85
2022/06/12 04:49:52;;;;;;;1.23;1.13;;;26.10;68.10;;;;;;4974684;28;20471;-85
2022/06/12 04:52:21;;;;;;;1.70;1.60;;;26.20;68.20;;;;;;4974729;28;20443;-83
2022/06/12 04:54:49;;;;;;;1.53;1.33;;;26.10;68.10;;;;;;4974925;28;20441;-85
2022/06/12 04:57:17;;;;;;;1.30;1.20;;;26.20;68.10;;;;;;4974509;28;20532;-83
2022/06/12 04:59:45;;;;;;;1.40;1.30;;;26.10;68.00;;;;;;4974564;28;20446;-83
2022/06/12 05:02:12;;;;;;;1.57;1.20;;;26.20;69.00;;;;;;4974609;28;20536;-83
2022/06/12 05:04:40;;;;;;;1.30;1.20;;;26.10;68.10;;;;;;4974745;28;20477;-83
2022/06/12 05:07:09;;;;;;;1.30;1.20;;;26.20;68.10;;;;;;4978467;28;20536;-83
2022/06/12 05:09:39;;;;;;;1.70;1.37;;;26.10;68.00;;;;;;4978428;28;20951;-84
2022/06/12 05:12:07;;;;;;;1.47;1.37;;;26.10;68.10;;;;;;4978448;28;20449;-83
2022/06/12 05:14:34;;;;;;;1.60;1.50;;;26.20;68.20;;;;;;4978336;28;20445;-83
2022/06/12 05:17:05;;;;;;;1.70;1.60;;;26.10;68.10;;;;;;4978289;28;20452;-85
2022/06/12 05:19:33;;;;;;;1.77;1.67;;;26.20;68.10;;;;;;4978256;28;20465;-83
2022/06/12 05:22:02;;;;;;;1.40;1.30;;;26.20;68.20;;;;;;4978124;28;20543;-84
2022/06/12 05:24:30;;;;;;;1.60;1.40;;;26.20;68.10;;;;;;4978183;28;20481;-83
2022/06/12 05:26:58;;;;;;;1.50;1.20;;;26.20;68.10;;;;;;4978354;28;20780;-83
2022/06/12 05:29:27;;;;;;;1.50;1.40;;;26.10;68.00;;;;;;4978293;28;20441;-85
2022/06/12 05:31:56;;;;;;;1.50;1.30;;;26.10;68.00;;;;;;4978208;28;21011;-84
2022/06/12 05:34:25;;;;;;;1.60;1.50;;;26.10;68.00;;;;;;4978240;28;20835;-83
2022/06/12 05:36:53;;;;;;;1.67;1.43;;;26.10;68.00;;;;;;4978185;28;20445;-85
2022/06/12 05:39:20;;;;;;;1.20;1.10;;;26.10;68.90;;;;;;4978277;28;20865;-83
2022/06/12 05:41:49;;;;;;;1.10;1.00;;;26.10;68.00;;;;;;4978185;28;20496;-84
2022/06/12 05:44:17;;;;;;;1.30;1.20;;;26.10;68.00;;;;;;4977835;28;20567;-83
2022/06/12 05:46:44;;;;;;;1.27;1.17;;;26.10;68.80;;;;;;4977918;28;20807;-86
2022/06/12 05:49:12;;;;;;;1.40;1.27;;;26.10;68.00;;;;;;4978062;28;20450;-83
2022/06/12 05:51:40;;;;;;;1.20;1.10;;;26.10;67.80;;;;;;4977887;28;20996;-83
2022/06/12 05:54:07;;;;;;;1.20;1.10;;;26.00;67.70;;;;;;4977734;28;20441;-85
2022/06/12 05:56:35;;;;;;;1.20;1.00;;;26.10;67.80;;;;;;4977505;28;20585;-85
2022/06/12 05:59:03;;;;;;;1.20;1.07;;;26.10;67.70;;;;;;4977629;28;20500;-84
2022/06/12 06:01:31;;;;;;;1.10;1.00;;;26.10;67.60;;;;;;4977383;28;20544;-84
2022/06/12 06:03:58;;;;;;;1.20;1.03;;;26.10;67.60;;;;;;4977560;28;20438;-83
2022/06/12 06:06:30;;;;;;;1.50;1.40;;;26.10;67.50;;;;;;4977411;28;20495;-83
2022/06/12 06:08:58;;;;;;;2.13;1.20;;;26.10;67.40;;;;;;4977394;28;20532;-84
2022/06/12 06:11:25;;;;;;;1.47;1.37;;;26.10;67.40;;;;;;4977342;28;20540;-84
2022/06/12 06:13:53;;;;;;;1.30;1.20;;;26.10;67.10;;;;;;4977811;28;20441;-86
2022/06/12 06:16:21;;;;;;;1.30;1.10;;;26.10;67.00;;;;;;4976617;28;20492;-83
2022/06/12 06:18:48;;;;;;;1.70;1.60;;;26.10;67.00;;;;;;4977062;28;20536;-84
2022/06/12 06:21:15;;;;;;;1.23;1.13;;;26.10;66.90;;;;;;4976946;28;20580;-83
2022/06/12 06:23:43;;;;;;;1.30;1.20;;;26.10;66.80;;;;;;4977288;28;20442;-83
2022/06/12 06:26:11;;;;;;;1.50;1.20;;;26.10;66.60;;;;;;4977017;28;20488;-83
2022/06/12 06:28:39;;;;;;;1.43;1.20;;;26.10;66.50;;;;;;4977271;28;20450;-83
2022/06/12 06:31:07;;;;;;;6.30;1.87;;;26.10;66.60;;;;;;4977058;28;20449;-85
2022/06/12 06:33:35;;;;;;;1.30;1.20;;;26.10;66.50;;;;;;4977371;28;20836;-84
2022/06/12 06:36:03;;;;;;;1.37;1.27;;;26.10;66.40;;;;;;4977028;28;20952;-86
2022/06/12 06:38:30;;;;;;;1.20;1.10;;;26.10;66.40;;;;;;4977591;28;20941;-83
2022/06/12 06:40:57;;;;;;;6.23;1.63;;;26.10;66.90;;;;;;4977150;28;20604;-87
2022/06/12 06:43:24;;;;;;;4.37;2.33;;;26.00;65.70;;;;;;4976955;28;20441;-87
2022/06/12 06:48:36;;;;;;;3.53;2.43;;;25.90;63.50;;;;;;4977029;28;20425;-87
2022/06/12 06:51:03;;;;;;;9.70;2.67;;;25.90;62.00;;;;;;4977040;28;20472;-87
2022/06/12 06:53:30;;;;;;;5.83;2.50;;;25.90;62.00;;;;;;4977047;28;20448;-88
2022/06/12 06:55:57;;;;;;;4.97;2.20;;;25.80;61.80;;;;;;4976566;28;20450;-88
2022/06/12 06:58:30;;;;;;;5.40;2.77;;;25.80;62.90;;;;;;4976924;28;20965;-83
2022/06/12 07:00:57;;;;;;;5.53;2.50;;;25.80;62.60;;;;;;4980485;28;20449;-83
2022/06/12 07:03:24;;;;;;;5.43;2.20;;;25.80;62.30;;;;;;4977089;28;20438;-83
2022/06/12 07:05:53;;;;;;;5.67;2.20;;;25.80;62.50;;;;;;4978137;28;20481;-82
2022/06/12 07:08:21;;;;;;;4.53;2.50;;;25.80;62.70;;;;;;4976347;28;20453;-82
2022/06/12 07:10:49;;;;;;;4.50;2.50;;;25.90;62.50;;;;;;4976113;28;20438;-82
2022/06/12 07:13:16;;;;;;;5.63;2.80;;;25.90;62.40;;;;;;4976280;28;20452;-82
2022/06/12 07:15:44;;;;;;;5.80;2.80;;;25.90;62.30;;;;;;4976189;28;20452;-84
2022/06/12 07:18:12;;;;;;;6.70;3.67;;;25.90;62.30;;;;;;4976251;28;20546;-81
2022/06/12 07:20:42;;;;;;;5.37;1.67;;;25.90;62.20;;;;;;4975739;28;20564;-82
2022/06/12 07:23:11;;;;;;;5.13;2.40;;;26.00;62.00;;;;;;4976195;28;20947;-82
2022/06/12 07:25:43;;;;;;;2.73;1.80;;;26.00;62.00;;;;;;4975682;28;20489;-82
2022/06/12 07:28:10;;;;;;;2.70;1.70;;;26.00;62.40;;;;;;4973408;28;20453;-82
2022/06/12 07:30:37;;;;;;;3.13;2.10;;;26.00;63.00;;;;;;4975601;28;20538;-86
2022/06/12 07:33:04;;;;;;;2.67;1.80;;;25.90;62.60;;;;;;4976115;28;20483;-90
2022/06/12 07:35:31;;;;;;;3.30;2.00;;;26.00;62.50;;;;;;4976275;28;21101;-90
2022/06/12 07:37:58;;;;;;;5.07;1.87;;;26.00;63.50;;;;;;4976055;28;20437;-86
2022/06/12 07:40:32;;;;;;;4.40;1.90;;;25.90;64.20;;;;;;4975833;28;20442;-86
2022/06/12 07:42:59;;;;;;;3.37;1.80;;;26.00;64.60;;;;;;4975985;28;20605;-90
2022/06/12 07:45:26;;;;;;;4.23;1.50;;;26.00;64.80;;;;;;4975640;28;20487;-86
2022/06/12 07:47:53;;;;;;;3.47;1.47;;;26.00;65.00;;;;;;4975999;28;20870;-88
2022/06/12 07:50:20;;;;;;;3.87;2.03;;;26.00;65.10;;;;;;4975707;28;20560;-86
2022/06/12 07:52:47;;;;;;;2.27;1.80;;;26.00;65.10;;;;;;4975717;28;20449;-87
2022/06/12 07:55:17;;;;;;;1.50;1.30;;;26.00;65.20;;;;;;4969733;28;20893;-86
2022/06/12 07:57:46;;;;;;;2.87;1.60;;;26.00;65.20;;;;;;4965966;28;20420;-91
2022/06/12 08:00:14;;;;;;;1.53;1.40;;;26.00;65.20;;;;;;4957007;28;20473;-85
2022/06/12 08:02:42;;;;;;;2.83;1.70;;;26.00;65.30;;;;;;4966209;28;20448;-87
2022/06/12 08:05:09;;;;;;;2.00;1.50;;;26.00;65.40;;;;;;4975691;28;20477;-86
2022/06/12 08:07:36;;;;;;;5.70;1.70;;;26.00;65.40;;;;;;4975668;28;20538;-86
2022/06/12 08:10:04;;;;;;;4.00;2.33;;;26.00;65.30;;;;;;4975384;28;20456;-88
2022/06/12 08:12:32;;;;;;;1.43;1.33;;;26.00;65.30;;;;;;4975121;28;20469;-85
2022/06/12 08:15:00;;;;;;;4.40;1.73;;;26.00;65.40;;;;;;4975202;28;20545;-85
2022/06/12 08:17:27;;;;;;;2.33;1.57;;;26.10;65.50;;;;;;4974985;28;20445;-91
2022/06/12 08:22:38;;;;;;;4.40;1.63;;;26.10;65.50;;;;;;4975293;28;20421;-86
2022/06/12 08:25:06;;;;;;;4.13;2.00;;;26.00;65.60;;;;;;4975197;28;20572;-92
2022/06/12 08:27:33;;;;;;;6.80;2.03;;;26.00;65.60;;;;;;4975050;28;20873;-86
2022/06/12 08:30:01;;;;;;;5.37;1.60;;;26.00;65.70;;;;;;4975409;28;20449;-86
2022/06/12 08:32:28;;;;;;;1.80;1.70;;;26.00;65.60;;;;;;4975113;28;20520;-90
2022/06/12 08:34:56;;;;;;;4.37;1.73;;;26.00;65.60;;;;;;4975542;28;20775;-87
2022/06/12 08:37:26;;;;;;;3.50;1.43;;;26.00;65.70;;;;;;4975158;28;20929;-90
2022/06/12 08:39:54;;;;;;;3.83;1.70;;;26.00;65.70;;;;;;4974285;28;20533;-92
2022/06/12 08:42:24;;;;;;;3.87;1.50;;;26.10;65.70;;;;;;4975764;28;20776;-92
2022/06/12 08:44:55;;;;;;;6.47;1.53;;;26.10;65.80;;;;;;4975214;28;20464;-88
2022/06/12 08:47:31;;;;;;;3.37;1.43;;;26.10;65.80;;;;;;4975255;28;20485;-85
2022/06/12 08:50:05;;;;;;;3.47;1.30;;;26.10;65.80;;;;;;4974657;28;20468;-86
2022/06/12 08:52:39;;;;;;;4.50;1.67;;;26.10;65.80;;;;;;4975653;28;21021;-89
2022/06/12 08:55:15;;;;;;;2.37;1.43;;;26.10;65.80;;;;;;4975077;28;20537;-85
2022/06/12 08:57:51;;;;;;;1.70;1.53;;;26.10;65.90;;;;;;4974818;28;20545;-85
2022/06/12 09:00:21;;;;;;;2.33;1.30;;;26.20;66.00;;;;;;4969903;28;20515;-85
2022/06/12 09:02:52;;;;;;;1.90;1.47;;;26.10;66.70;;;;;;4969257;28;20488;-83
2022/06/12 09:05:26;;;;;;;2.83;1.50;;;26.20;66.50;;;;;;4965634;28;20477;-84
2022/06/12 09:07:58;;;;;;;1.90;1.70;;;26.20;66.70;;;;;;4964036;28;20443;-84
2022/06/12 09:10:32;;;;;;;4.63;2.43;;;26.20;66.90;;;;;;4962949;28;20540;-84
2022/06/12 09:13:09;;;;;;;2.83;1.60;;;26.20;67.00;;;;;;4965528;28;20529;-84
2022/06/12 09:15:42;;;;;;;2.40;1.80;;;26.20;67.90;;;;;;4963327;28;20451;-85
2022/06/12 09:18:22;;;;;;;2.90;1.67;;;26.20;67.10;;;;;;4974440;28;20477;-83
2022/06/12 09:21:08;;;;;;;3.80;2.10;;;26.20;67.20;;;;;;4974943;28;20520;-84
2022/06/12 09:23:44;;;;;;;5.83;2.57;;;26.30;67.20;;;;;;4965984;28;20526;-84
2022/06/12 09:26:19;;;;;;;2.50;1.93;;;26.30;67.20;;;;;;4970036;28;20485;-83
2022/06/12 09:28:57;;;;;;;3.47;1.53;;;26.30;67.30;;;;;;4967216;28;20468;-83
2022/06/12 09:31:28;;;;;;;3.60;2.03;;;26.30;67.30;;;;;;4966811;28;20524;-84
2022/06/12 09:34:04;;;;;;;2.73;2.00;;;26.30;67.30;;;;;;4954845;28;20537;-84
2022/06/12 09:36:55;;;;;;;2.90;1.70;;;26.30;67.30;;;;;;4969672;28;20524;-85
2022/06/12 09:39:35;;;;;;;3.50;1.77;;;26.30;67.30;;;;;;4956316;28;20506;-85
2022/06/12 09:42:10;;;;;;;3.40;1.73;;;26.30;67.30;;;;;;4960744;28;20473;-85
2022/06/12 09:44:49;;;;;;;2.53;1.30;;;26.30;66.70;;;;;;4974499;28;20455;-85
2022/06/12 09:47:29;;;;;;;2.17;1.33;;;26.30;66.40;;;;;;4974252;28;20528;-89
2022/06/12 09:50:05;;;;;;;1.53;1.03;;;26.30;66.10;;;;;;4974609;28;20567;-90
2022/06/12 09:52:49;;;;;;;2.23;1.60;;;26.20;65.60;;;;;;4972844;28;20469;-86
2022/06/12 09:55:22;;;;;;;2.37;1.80;;;26.40;66.70;;;;;;4965542;28;20442;-86
2022/06/12 09:57:54;;;;;;;1.70;1.50;;;26.30;67.10;;;;;;4971407;28;20502;-90
2022/06/12 10:00:26;;;;;;;1.83;1.57;;;26.30;67.30;;;;;;4977440;28;20448;-90
2022/06/12 10:03:04;;;;;;;1.73;1.50;;;26.30;67.40;;;;;;4964218;28;20513;-84
2022/06/12 10:05:40;;;;;;;1.67;1.40;;;26.30;67.40;;;;;;4958362;29;20477;-85
2022/06/12 10:08:12;;;;;;;3.77;1.73;;;26.40;67.50;;;;;;4958113;29;20450;-86
2022/06/12 10:10:46;;;;;;;1.87;1.77;;;26.30;67.40;;;;;;4969978;28;20521;-86
2022/06/12 10:13:17;;;;;;;2.50;1.60;;;26.30;67.50;;;;;;4971262;28;20492;-92
2022/06/12 10:15:48;;;;;;;2.90;1.60;;;26.40;67.60;;;;;;4963161;28;20540;-86
2022/06/12 10:18:22;;;;;;;1.90;1.40;;;26.30;67.40;;;;;;4960519;28;20461;-86
2022/06/12 10:20:54;;;;;;;2.30;1.50;;;26.40;67.60;;;;;;4968105;28;20516;-93
2022/06/12 10:23:22;;;;;;;1.77;1.53;;;26.40;67.60;;;;;;4967569;28;20438;-86
2022/06/12 10:25:53;;;;;;;2.87;1.80;;;26.30;67.50;;;;;;4966271;28;21039;-85
2022/06/12 10:28:24;;;;;;;2.73;1.83;;;26.40;67.60;;;;;;4971836;28;20556;-89
2022/06/12 10:31:05;;;;;;;2.13;1.77;;;26.40;67.60;;;;;;4978443;28;20850;-87
2022/06/12 10:33:44;;;;;;;2.03;1.67;;;26.40;67.40;;;;;;4977822;28;20468;-91
2022/06/12 10:36:20;;;;;;;1.87;1.20;;;26.30;66.20;;;;;;4977326;28;20538;-87
2022/06/12 10:38:47;;;;;;;2.27;1.30;;;26.30;66.10;;;;;;4958096;28;20441;-91
2022/06/12 10:41:23;;;;;;;2.40;1.30;;;26.30;65.70;;;;;;4957914;28;20452;-86
2022/06/12 10:43:53;;;;;;;1.63;1.30;;;26.30;65.40;;;;;;4957699;28;20441;-89
2022/06/12 10:46:23;;;;;;;2.57;1.60;;;26.30;65.60;;;;;;4957494;28;20485;-90
2022/06/12 10:49:00;;;;;;;1.57;1.47;;;26.30;65.70;;;;;;4957495;28;21024;-88
2022/06/12 10:51:31;;;;;;;1.63;1.30;;;26.30;65.80;;;;;;4957965;28;20466;-90
2022/06/12 10:54:00;;;;;;;2.53;1.23;;;26.30;65.90;;;;;;4964265;28;20543;-87
2022/06/12 10:56:37;;;;;;;1.60;1.17;;;26.30;65.90;;;;;;4976919;28;20450;-90
2022/06/12 10:59:38;;;;;;;6.53;1.70;;;26.30;65.90;;;;;;4977021;28;20443;-90
2022/06/12 11:02:32;;;;;;;1.60;1.33;;;26.30;65.80;;;;;;4917315;29;20448;-86
2022/06/12 11:05:09;;;;;;;1.87;1.40;;;26.30;65.90;;;;;;4900123;29;20473;-86
2022/06/12 11:07:45;;;;;;;2.10;1.60;;;26.30;66.30;;;;;;4939859;28;20486;-93
2022/06/12 11:10:25;;;;;;;1.93;1.50;;;26.30;66.50;;;;;;4957339;28;20469;-93
2022/06/12 11:13:10;;;;;;;4.07;1.83;;;26.40;67.10;;;;;;4957624;28;20965;-94
2022/06/12 11:15:59;;;;;;;1.87;1.57;;;26.40;67.40;;;;;;4957564;28;20478;-93
2022/06/12 11:18:41;;;;;;;2.07;1.50;;;26.40;67.40;;;;;;4957797;28;20989;-90
2022/06/12 11:21:19;;;;;;;1.97;1.30;;;26.40;67.60;;;;;;4959985;28;20513;-92
2022/06/12 11:24:12;;;;;;;2.13;1.60;;;26.40;67.40;;;;;;4959314;28;20445;-93
2022/06/12 11:27:06;;;;;;;3.93;1.80;;;26.30;67.50;;;;;;4974206;28;20495;-89
2022/06/12 11:29:48;;;;;;;3.93;1.77;;;26.40;67.60;;;;;;4976263;28;20441;-88
2022/06/12 11:32:28;;;;;;;3.23;1.70;;;26.40;67.50;;;;;;4977061;28;20473;-88
2022/06/12 11:35:17;;;;;;;5.03;1.90;;;26.40;67.10;;;;;;4976097;28;20465;-87
2022/06/12 11:38:21;;;;;;;2.03;1.33;;;26.40;67.70;;;;;;4976168;28;20457;-85
2022/06/12 11:40:57;;;;;;;3.00;1.40;;;26.40;66.20;;;;;;4976501;28;20475;-86
2022/06/12 11:43:32;;;;;;;1.30;1.10;;;26.30;66.10;;;;;;4977190;28;20469;-86
2022/06/12 11:46:12;;;;;;;2.50;1.57;;;26.30;66.10;;;;;;4977714;28;20504;-89
2022/06/12 11:48:55;;;;;;;3.27;1.70;;;26.30;66.10;;;;;;4976650;28;20433;-88
2022/06/12 11:51:31;;;;;;;3.00;1.80;;;26.40;66.40;;;;;;4975514;28;21023;-92
2022/06/12 11:54:14;;;;;;;3.23;1.73;;;26.40;66.70;;;;;;4975814;28;20433;-91
2022/06/12 11:59:44;;;;;;;5.23;2.33;;;26.40;66.10;;;;;;4915997;29;20456;-89
2022/06/12 12:02:21;;;;;;;4.63;2.50;;;26.40;66.10;;;;;;4968062;28;20453;-88
2022/06/12 12:05:07;;;;;;;6.43;1.70;;;26.40;65.90;;;;;;4975437;28;20485;-92
2022/06/12 12:07:49;;;;;;;3.27;1.70;;;26.50;66.00;;;;;;4975342;28;20507;-88
2022/06/12 12:10:30;;;;;;;4.70;1.80;;;26.50;66.10;;;;;;4975340;28;20480;-89
2022/06/12 12:13:05;;;;;;;4.23;2.07;;;26.50;66.20;;;;;;4975676;28;20881;-92
2022/06/12 12:15:38;;;;;;;5.53;2.03;;;26.50;66.30;;;;;;4974859;28;20460;-89
2022/06/12 12:18:13;;;;;;;2.50;1.67;;;26.50;66.30;;;;;;4975218;28;20532;-88
2022/06/12 12:20:43;;;;;;;2.20;2.00;;;26.60;66.50;;;;;;4973996;28;20484;-88
2022/06/12 12:23:14;;;;;;;2.00;1.53;;;26.50;66.40;;;;;;4975895;28;20504;-89
2022/06/12 12:25:46;;;;;;;2.47;1.90;;;26.50;66.40;;;;;;4975978;28;20480;-88
2022/06/12 12:28:22;;;;;;;4.03;1.80;;;26.50;66.50;;;;;;4975037;28;20540;-92
2022/06/12 12:30:52;;;;;;;2.33;1.77;;;26.50;66.50;;;;;;4975524;28;20484;-88
2022/06/12 12:33:20;;;;;;;6.83;1.83;;;26.50;66.50;;;;;;4975302;28;20445;-88
2022/06/12 12:41:22;;;;;;;2.33;1.67;;;26.50;66.70;;;;;;4974819;28;20908;-83
2022/06/12 12:43:57;;;;;;;4.37;1.30;;;26.50;66.70;;;;;;4974974;28;20479;-83
2022/06/12 12:46:26;;;;;;;2.37;1.50;;;26.50;66.40;;;;;;4975074;28;20994;-85
2022/06/12 12:48:54;;;;;;;1.83;1.20;;;26.50;66.20;;;;;;4974902;28;20469;-85
2022/06/12 12:51:30;;;;;;;2.77;1.47;;;26.40;65.90;;;;;;4973330;28;20442;-88
2022/06/12 12:54:09;;;;;;;3.77;1.80;;;26.50;66.20;;;;;;4959322;28;20537;-89
2022/06/12 12:56:39;;;;;;;2.33;1.80;;;26.50;66.70;;;;;;4976145;28;20455;-91
2022/06/12 13:09:16;;;;;;;2.33;1.53;;;26.50;67.10;;;;;;4937445;29;20442;-86
2022/06/12 13:11:57;;;;;;;2.27;1.43;;;26.50;67.30;;;;;;4952134;29;20878;-87
2022/06/12 13:14:53;;;;;;;3.87;1.50;;;26.40;66.70;;;;;;4947232;29;20478;-85
2022/06/12 13:17:31;;;;;;;2.10;1.50;;;26.40;66.10;;;;;;4952844;29;20446;-85
2022/06/12 13:20:25;;;;;;;3.23;1.67;;;26.40;66.20;;;;;;4951836;29;20458;-85
2022/06/12 13:23:06;;;;;;;1.53;1.20;;;26.40;66.20;;;;;;4958642;28;20536;-88
2022/06/12 13:25:36;;;;;;;3.60;1.60;;;26.40;66.30;;;;;;4969227;28;21020;-88
2022/06/12 13:28:04;;;;;;;4.10;1.80;;;26.40;66.70;;;;;;4960099;28;20553;-85
2022/06/12 13:30:35;;;;;;;4.03;1.30;;;26.50;66.90;;;;;;4978225;28;20480;-88
2022/06/12 13:33:09;;;;;;;3.20;1.70;;;26.50;66.90;;;;;;4979015;28;20848;-86
2022/06/12 13:35:43;;;;;;;3.87;1.63;;;26.50;66.90;;;;;;4961877;28;20483;-85
2022/06/12 13:38:19;;;;;;;1.70;1.20;;;26.50;66.30;;;;;;4975720;28;20441;-86
2022/06/12 13:40:55;;;;;;;1.87;1.53;;;26.50;66.20;;;;;;4977749;28;20449;-84
2022/06/12 13:43:28;;;;;;;5.33;1.90;;;26.40;66.30;;;;;;4977839;28;20448;-87
2022/06/12 13:45:58;;;;;;;3.17;1.87;;;26.50;67.10;;;;;;4978131;28;20856;-83
2022/06/12 13:48:28;;;;;;;3.30;2.07;;;26.50;66.60;;;;;;4977658;28;20575;-84
2022/06/12 13:51:01;;;;;;;2.77;1.50;;;26.50;66.60;;;;;;4977695;28;20450;-83